Time;durP1;ratioP1;P1;durP2;ratioP2;P2;SDS_P1;SDS_P2;PMS_P1;PMS_P2;Temp;Humidity;BMP_temperature;BMP_pressure;BME280_temperature;BME280_humidity;BME280_pressure;Samples;Min_cycle;Max_cycle;Signal;HPM_P1;HPM_P2
2023/01/28 00:01:21;;;;;;;12.10;4.78;;;0.40;1.00;;;;;;6256304;22;20938;-82
2023/01/28 00:03:51;;;;;;;12.20;6.35;;;0.30;1.00;;;;;;6257233;22;20903;-81
2023/01/28 00:06:21;;;;;;;11.75;6.05;;;0.30;1.00;;;;;;6256455;22;20939;-81
2023/01/28 00:08:50;;;;;;;12.48;4.88;;;0.20;1.00;;;;;;6261015;22;20977;-81
2023/01/28 00:11:21;;;;;;;13.02;6.30;;;0.20;1.00;;;;;;6257784;22;20209;-81
2023/01/28 00:13:51;;;;;;;12.23;5.70;;;0.10;1.00;;;;;;6261991;22;20201;-81
2023/01/28 00:16:22;;;;;;;15.00;7.10;;;0.10;1.00;;;;;;6267140;22;20235;-82
2023/01/28 00:18:52;;;;;;;11.20;5.68;;;0.10;1.00;;;;;;6257471;22;20260;-81
2023/01/28 00:21:21;;;;;;;10.02;4.65;;;0.10;1.00;;;;;;6253986;22;20212;-81
2023/01/28 00:24:00;;;;;;;10.45;4.60;;;0.10;1.00;;;;;;6244273;22;20209;-81
2023/01/28 00:26:32;;;;;;;14.65;5.20;;;0.10;1.00;;;;;;6242379;22;21001;-81
2023/01/28 00:29:00;;;;;;;14.50;5.15;;;0.00;1.00;;;;;;6219916;22;20209;-81
2023/01/28 00:31:39;;;;;;;11.90;5.75;;;0.00;1.00;;;;;;6239214;22;20213;-79
2023/01/28 00:34:10;;;;;;;13.68;6.00;;;-0.10;1.00;;;;;;6224544;22;20275;-79
2023/01/28 00:36:41;;;;;;;12.85;5.25;;;-0.10;1.00;;;;;;6224536;22;20319;-79
2023/01/28 00:39:22;;;;;;;13.32;4.93;;;-0.10;1.00;;;;;;6238477;22;20254;-79
2023/01/28 00:41:51;;;;;;;12.48;5.50;;;-0.10;1.00;;;;;;6269230;22;20673;-80
2023/01/28 00:44:21;;;;;;;13.23;5.90;;;-0.10;1.00;;;;;;6230260;22;20212;-80
2023/01/28 00:46:51;;;;;;;15.20;6.38;;;-0.20;1.00;;;;;;6221588;22;20275;-80
2023/01/28 00:49:21;;;;;;;12.38;5.50;;;-0.20;1.00;;;;;;6227206;22;20296;-80
2023/01/28 00:51:51;;;;;;;13.93;6.05;;;-0.20;1.00;;;;;;6230423;22;20218;-80
2023/01/28 00:54:20;;;;;;;13.60;5.90;;;-0.20;1.00;;;;;;6260716;22;20267;-80
2023/01/28 00:56:52;;;;;;;12.98;6.32;;;-0.20;1.00;;;;;;6231247;22;20208;-80
2023/01/28 00:59:22;;;;;;;15.43;6.50;;;-0.20;1.00;;;;;;6244808;22;20231;-81
2023/01/28 01:01:51;;;;;;;13.57;5.65;;;-0.30;1.00;;;;;;6232105;22;20215;-80
2023/01/28 01:04:34;;;;;;;16.70;5.50;;;-0.30;1.00;;;;;;6228706;22;20216;-80
2023/01/28 01:07:02;;;;;;;14.65;6.07;;;-0.30;1.00;;;;;;6245282;22;20209;-81
2023/01/28 01:09:31;;;;;;;16.05;6.95;;;-0.30;1.00;;;;;;6228455;22;20231;-81
2023/01/28 01:12:11;;;;;;;12.95;5.97;;;-0.30;1.00;;;;;;6233253;22;20213;-81
2023/01/28 01:14:41;;;;;;;16.45;6.18;;;-0.30;1.00;;;;;;6242001;22;20217;-80
2023/01/28 01:17:21;;;;;;;18.80;6.60;;;-0.30;1.00;;;;;;6228992;22;20204;-81
2023/01/28 01:19:51;;;;;;;15.30;6.43;;;-0.40;1.00;;;;;;6226503;22;20380;-80
2023/01/28 01:22:20;;;;;;;12.73;5.60;;;-0.40;1.00;;;;;;6252777;22;20208;-81
2023/01/28 01:24:50;;;;;;;11.90;6.13;;;-0.30;1.00;;;;;;6215836;22;20582;-80
2023/01/28 01:27:28;;;;;;;15.25;6.00;;;-0.30;1.00;;;;;;6222829;22;20205;-80
2023/01/28 01:30:01;;;;;;;17.25;7.13;;;-0.30;1.00;;;;;;6228451;22;20217;-80
2023/01/28 01:32:33;;;;;;;15.82;6.10;;;-0.20;1.00;;;;;;6209189;22;20213;-81
2023/01/28 01:35:13;;;;;;;12.25;5.30;;;-0.10;1.00;;;;;;6232835;22;20204;-80
2023/01/28 01:37:52;;;;;;;35.97;20.08;;;0.00;1.00;;;;;;6248051;22;20212;-80
2023/01/28 01:40:22;;;;;;;14.13;6.00;;;0.10;1.00;;;;;;6203409;22;20208;-80
2023/01/28 01:45:41;;;;;;;16.13;6.88;;;0.30;1.00;;;;;;6194539;22;20278;-82
2023/01/28 01:48:30;;;;;;;14.43;5.68;;;0.40;1.00;;;;;;6255445;22;20938;-82
2023/01/28 01:51:12;;;;;;;11.90;6.00;;;0.40;1.00;;;;;;6231304;22;20212;-81
2023/01/28 01:53:52;;;;;;;11.20;5.00;;;0.50;1.00;;;;;;6218009;22;20668;-81
2023/01/28 01:56:43;;;;;;;13.32;6.50;;;0.60;1.00;;;;;;6201752;22;20212;-82
2023/01/28 01:59:20;;;;;;;12.07;5.55;;;0.70;1.00;;;;;;6260695;22;20229;-81
2023/01/28 02:02:00;;;;;;;14.18;5.15;;;0.90;1.00;;;;;;6224714;22;20286;-81
2023/01/28 02:04:40;;;;;;;11.50;4.60;;;1.00;1.00;;;;;;6227210;22;20212;-81
2023/01/28 02:10:00;;;;;;;11.13;4.55;;;1.10;1.00;;;;;;6226296;22;20219;-81
2023/01/28 02:13:03;;;;;;;;;;;;;;;;;;;;;
2023/01/28 02:15:30;;;;;;;16.48;5.80;;;1.10;1.00;;;;;;6145983;23;38731;-82
2023/01/28 02:18:00;;;;;;;13.48;5.20;;;1.20;1.00;;;;;;6219105;22;20236;-82
2023/01/28 02:21:01;;;;;;;8.95;4.10;;;1.20;1.00;;;;;;6253112;22;20235;-82
2023/01/28 02:24:10;;;;;;;12.15;5.00;;;1.30;1.00;;;;;;6218543;22;20521;-81
2023/01/28 02:30:18;;;;;;;10.90;4.80;;;1.40;1.00;;;;;;6147531;23;20203;-81
2023/01/28 02:44:41;;;;;;;11.98;5.07;;;1.50;1.00;;;;;;6203784;22;20203;-82
2023/01/28 02:50:14;;;;;;;11.27;4.78;;;1.50;1.00;;;;;;6141076;23;20285;-81
2023/01/28 02:55:49;;;;;;;11.90;4.00;;;1.60;1.00;;;;;;6230842;22;20209;-82
2023/01/28 03:01:44;;;;;;;11.00;4.28;;;1.50;1.00;;;;;;6217510;22;20216;-81
2023/01/28 03:04:29;;;;;;;11.05;4.93;;;1.40;1.00;;;;;;6254084;22;20216;-80
2023/01/28 03:07:11;;;;;;;14.60;4.43;;;1.50;1.00;;;;;;6253700;22;20711;-82
2023/01/28 03:09:52;;;;;;;12.57;4.03;;;1.50;1.00;;;;;;6201645;22;20228;-83
2023/01/28 03:37:51;;;;;;;10.23;3.55;;;1.70;1.00;;;;;;6261673;22;20217;-82
2023/01/28 03:40:22;;;;;;;10.25;4.28;;;1.70;1.00;;;;;;6258950;22;20217;-82
2023/01/28 03:42:53;;;;;;;10.35;3.33;;;1.80;1.00;;;;;;6249269;22;20209;-83
2023/01/28 03:45:20;;;;;;;9.70;3.90;;;1.80;1.00;;;;;;6261231;22;20231;-82
2023/01/28 03:47:49;;;;;;;9.95;3.80;;;1.80;1.00;;;;;;6263762;22;21149;-82
2023/01/28 03:50:17;;;;;;;9.88;4.30;;;1.70;1.00;;;;;;6263402;22;20212;-83
2023/01/28 03:52:44;;;;;;;12.98;5.22;;;1.70;1.00;;;;;;6263587;22;20279;-82
2023/01/28 03:55:13;;;;;;;9.80;4.40;;;1.70;1.00;;;;;;6264404;22;20209;-82
2023/01/28 03:57:43;;;;;;;9.35;4.15;;;1.70;1.00;;;;;;6263688;22;20265;-83
2023/01/28 04:00:12;;;;;;;9.50;4.28;;;1.70;1.00;;;;;;6263925;22;20209;-81
2023/01/28 04:02:39;;;;;;;13.02;5.13;;;1.70;1.00;;;;;;6264549;22;20208;-82
2023/01/28 04:05:12;;;;;;;11.02;4.75;;;1.80;1.00;;;;;;6259753;22;20212;-81
2023/01/28 04:07:41;;;;;;;11.57;4.13;;;1.80;1.00;;;;;;6274885;22;20212;-81
2023/01/28 04:10:13;;;;;;;10.77;4.75;;;1.90;1.00;;;;;;6262185;22;20209;-82
2023/01/28 04:12:42;;;;;;;10.65;3.65;;;1.90;1.00;;;;;;6262860;22;20236;-82
2023/01/28 04:15:15;;;;;;;9.35;3.10;;;1.90;1.00;;;;;;6260464;22;20204;-82
2023/01/28 04:17:46;;;;;;;9.40;3.83;;;1.90;1.00;;;;;;6255885;22;20207;-83
2023/01/28 04:20:14;;;;;;;9.75;4.55;;;1.90;1.00;;;;;;6257375;22;20224;-82
2023/01/28 04:22:42;;;;;;;10.15;4.75;;;2.00;1.00;;;;;;6261271;22;20267;-82
2023/01/28 04:25:10;;;;;;;11.30;4.20;;;1.90;1.00;;;;;;6260376;22;20416;-82
2023/01/28 04:27:42;;;;;;;13.00;4.20;;;2.00;1.00;;;;;;6258945;22;20270;-83
2023/01/28 04:30:10;;;;;;;11.70;4.90;;;2.00;1.00;;;;;;6259113;22;20997;-81
2023/01/28 04:32:39;;;;;;;13.15;4.03;;;2.00;1.00;;;;;;6242451;22;20217;-81
2023/01/28 04:35:09;;;;;;;13.63;5.15;;;2.00;1.00;;;;;;6230044;22;20216;-82
2023/01/28 04:37:41;;;;;;;19.90;4.10;;;2.00;1.00;;;;;;6248172;22;20256;-83
2023/01/28 04:40:09;;;;;;;10.65;3.70;;;2.00;1.00;;;;;;6262878;22;20292;-83
2023/01/28 04:42:37;;;;;;;11.18;5.10;;;2.00;1.00;;;;;;6250560;22;20224;-81
2023/01/28 04:45:06;;;;;;;12.23;4.13;;;2.00;1.00;;;;;;6262609;22;20236;-81
2023/01/28 04:47:33;;;;;;;11.07;4.22;;;2.00;1.00;;;;;;6259747;22;20220;-82
2023/01/28 04:50:00;;;;;;;15.57;3.95;;;2.00;1.00;;;;;;6264494;22;20212;-81
2023/01/28 04:52:27;;;;;;;12.40;4.05;;;2.00;1.00;;;;;;6261818;22;20209;-81
2023/01/28 04:54:55;;;;;;;9.88;4.70;;;1.90;1.00;;;;;;6261821;22;20247;-82
2023/01/28 04:57:22;;;;;;;14.30;4.20;;;1.90;1.00;;;;;;6259650;22;20213;-82
2023/01/28 04:59:52;;;;;;;11.10;4.03;;;1.90;1.00;;;;;;6248858;22;20303;-82
2023/01/28 05:02:22;;;;;;;9.73;4.28;;;1.90;1.00;;;;;;6268895;22;20218;-81
2023/01/28 05:04:52;;;;;;;9.63;3.28;;;2.00;1.00;;;;;;6244285;22;20259;-82
2023/01/28 05:07:29;;;;;;;12.15;3.33;;;2.00;1.00;;;;;;6242254;22;20267;-81
2023/01/28 05:13:02;;;;;;;13.77;4.70;;;2.10;1.00;;;;;;6231795;22;20206;-82
2023/01/28 05:15:32;;;;;;;17.50;7.70;;;2.10;1.00;;;;;;6218154;22;20295;-82
2023/01/28 05:18:29;;;;;;;12.20;3.88;;;2.10;1.00;;;;;;6243192;22;20213;-82
2023/01/28 05:21:13;;;;;;;14.52;4.63;;;2.10;1.00;;;;;;6235369;22;20660;-84
2023/01/28 05:23:54;;;;;;;;;;;;;;;;;;;;;
2023/01/28 05:26:30;;;;;;;10.30;4.20;;;2.20;1.00;;;;;;6238135;22;39394;-81
2023/01/28 05:29:03;;;;;;;9.60;4.68;;;2.20;1.00;;;;;;6251639;22;20293;-81
2023/01/28 05:31:40;;;;;;;13.82;5.30;;;2.10;1.00;;;;;;6237051;22;20214;-82
2023/01/28 05:34:14;;;;;;;10.93;4.57;;;2.10;1.00;;;;;;6228717;22;20212;-82
2023/01/28 05:36:44;;;;;;;16.88;4.10;;;2.10;1.00;;;;;;6205478;22;20212;-82
2023/01/28 05:39:14;;;;;;;8.13;4.00;;;2.20;1.00;;;;;;6253391;22;20212;-82
2023/01/28 05:44:33;;;;;;;10.30;4.75;;;2.30;1.00;;;;;;6208436;22;20213;-82
2023/01/28 05:47:02;;;;;;;10.77;4.88;;;2.20;1.00;;;;;;6244268;22;20282;-81
2023/01/28 05:49:33;;;;;;;10.65;4.10;;;2.30;1.00;;;;;;6219559;22;20961;-82
2023/01/28 05:52:02;;;;;;;12.40;4.55;;;2.30;1.00;;;;;;6245586;22;20215;-83
2023/01/28 05:54:51;;;;;;;16.23;5.53;;;2.40;1.00;;;;;;6209157;22;20213;-81
2023/01/28 05:57:21;;;;;;;12.07;3.75;;;2.30;1.00;;;;;;6111864;23;20212;-81
2023/01/28 06:00:04;;;;;;;;;;;;;;;;;;;;;
2023/01/28 06:02:32;;;;;;;9.40;4.80;;;2.30;1.00;;;;;;6104570;23;41476;-81
2023/01/28 06:05:12;;;;;;;10.00;4.45;;;2.30;1.00;;;;;;6112530;23;20271;-81
2023/01/28 06:07:51;;;;;;;10.40;4.35;;;2.40;1.00;;;;;;6120903;23;20210;-82
2023/01/28 06:10:32;;;;;;;11.40;5.00;;;2.40;1.00;;;;;;6133885;23;20214;-81
2023/01/28 06:13:02;;;;;;;11.85;5.50;;;2.50;1.00;;;;;;6142048;23;20972;-81
2023/01/28 06:15:32;;;;;;;13.23;5.22;;;2.50;1.00;;;;;;6127917;23;20207;-81
2023/01/28 06:18:04;;;;;;;10.65;4.55;;;2.50;1.00;;;;;;6141756;23;20218;-81
2023/01/28 06:20:32;;;;;;;11.20;5.82;;;2.40;1.00;;;;;;6212741;22;20253;-81
2023/01/28 06:23:01;;;;;;;13.63;4.82;;;2.50;1.00;;;;;;6252507;22;20958;-82
2023/01/28 06:25:54;;;;;;;11.60;5.72;;;2.40;1.00;;;;;;6211307;22;20216;-83
2023/01/28 06:28:52;;;;;;;12.15;5.30;;;2.30;1.00;;;;;;6253153;22;20211;-81
2023/01/28 06:31:31;;;;;;;13.30;5.82;;;2.30;1.00;;;;;;6225480;22;20212;-82
2023/01/28 06:34:12;;;;;;;12.07;5.78;;;2.30;1.00;;;;;;6247670;22;20864;-82
2023/01/28 06:36:53;;;;;;;11.10;6.72;;;2.30;1.00;;;;;;6214884;22;20263;-83
2023/01/28 06:39:25;;;;;;;11.85;5.55;;;2.40;1.00;;;;;;6194136;22;20201;-81
2023/01/28 06:41:53;;;;;;;14.73;7.13;;;2.30;1.00;;;;;;6232558;22;20208;-81
2023/01/28 06:44:22;;;;;;;12.75;6.30;;;2.40;1.00;;;;;;6246061;22;20209;-82
2023/01/28 06:46:52;;;;;;;13.43;6.00;;;2.40;1.00;;;;;;6208528;22;20213;-82
2023/01/28 06:49:22;;;;;;;18.80;9.70;;;2.40;1.00;;;;;;6216345;22;20204;-82
2023/01/28 06:52:12;;;;;;;18.02;8.77;;;2.50;1.00;;;;;;6248595;22;20216;-83
2023/01/28 06:54:41;;;;;;;16.20;8.90;;;2.50;1.00;;;;;;6255683;22;20251;-81
2023/01/28 06:57:12;;;;;;;16.85;9.77;;;2.40;1.00;;;;;;6212513;22;20213;-82
2023/01/28 06:59:51;;;;;;;14.27;7.75;;;2.40;1.00;;;;;;6251784;22;20610;-82
2023/01/28 07:02:43;;;;;;;14.85;7.80;;;2.40;1.00;;;;;;6235556;22;20208;-83
2023/01/28 07:05:13;;;;;;;16.65;8.15;;;2.40;1.00;;;;;;6250654;22;20227;-81
2023/01/28 07:07:44;;;;;;;19.55;9.65;;;2.50;1.00;;;;;;6228097;22;20218;-81
2023/01/28 07:10:14;;;;;;;17.10;8.50;;;2.50;1.00;;;;;;6213419;22;20220;-81
2023/01/28 07:12:53;;;;;;;19.30;9.15;;;2.50;1.00;;;;;;6233429;22;20212;-81
2023/01/28 07:15:23;;;;;;;17.98;9.07;;;2.50;1.00;;;;;;6217616;22;20238;-81
2023/01/28 07:20:42;;;;;;;16.60;8.55;;;2.50;1.00;;;;;;6189889;22;20212;-82
2023/01/28 07:23:32;;;;;;;18.38;8.55;;;2.50;1.00;;;;;;6247962;22;20217;-82
2023/01/28 07:26:02;;;;;;;13.60;7.65;;;2.50;1.00;;;;;;6255850;22;20243;-82
2023/01/28 07:28:33;;;;;;;18.27;9.43;;;2.50;1.00;;;;;;6227801;22;20216;-81
2023/01/28 07:31:03;;;;;;;14.60;7.28;;;2.60;1.00;;;;;;6221120;22;21178;-82
2023/01/28 07:33:31;;;;;;;18.90;8.07;;;2.60;1.00;;;;;;6219676;22;20744;-82
2023/01/28 07:36:13;;;;;;;15.80;8.00;;;2.60;1.00;;;;;;6229439;22;20209;-82
2023/01/28 07:38:42;;;;;;;14.65;8.45;;;2.60;1.00;;;;;;6219326;22;20247;-82
2023/01/28 07:41:14;;;;;;;14.27;7.15;;;2.70;1.00;;;;;;6245172;22;20215;-82
2023/01/28 07:43:43;;;;;;;15.73;6.85;;;2.60;1.00;;;;;;6240225;22;20210;-82
2023/01/28 07:46:23;;;;;;;;;;;;;;;;;;;;;
2023/01/28 07:48:53;;;;;;;14.50;7.72;;;2.80;1.00;;;;;;6202665;22;38793;-81
2023/01/28 07:51:22;;;;;;;16.05;6.50;;;2.90;1.00;;;;;;6234904;22;20204;-82
2023/01/28 07:54:03;;;;;;;12.45;6.07;;;2.90;1.00;;;;;;6251229;22;20222;-82
2023/01/28 07:56:40;;;;;;;13.52;7.03;;;3.00;1.00;;;;;;6229862;22;20207;-81
2023/01/28 07:59:20;;;;;;;12.10;6.60;;;3.10;1.00;;;;;;6248867;22;20270;-80
2023/01/28 08:01:52;;;;;;;16.15;7.18;;;3.20;1.00;;;;;;6220704;22;20248;-82
2023/01/28 08:04:33;;;;;;;14.30;6.07;;;3.20;1.00;;;;;;6234966;22;20216;-82
2023/01/28 08:10:23;;;;;;;15.68;7.47;;;3.30;1.00;;;;;;6235518;22;20236;-83
2023/01/28 08:13:13;;;;;;;14.68;7.30;;;3.40;1.00;;;;;;6187871;22;20265;-82
2023/01/28 08:15:43;;;;;;;14.82;8.10;;;3.40;1.00;;;;;;6166228;22;20222;-81
2023/01/28 08:24:10;;;;;;;15.35;7.00;;;3.40;1.00;;;;;;6222868;22;20233;-89
2023/01/28 08:29:44;;;;;;;19.58;8.75;;;3.40;1.00;;;;;;6255448;22;20216;-90
2023/01/28 08:32:23;;;;;;;17.30;7.72;;;3.50;1.00;;;;;;6243175;22;20300;-86
2023/01/28 08:34:53;;;;;;;12.95;7.53;;;3.40;1.00;;;;;;6259088;22;20291;-85
2023/01/28 08:37:22;;;;;;;15.63;8.38;;;3.50;1.00;;;;;;6241537;22;20212;-80
2023/01/28 08:39:52;;;;;;;14.18;8.68;;;3.50;1.00;;;;;;6251653;22;20352;-80
2023/01/28 08:42:44;;;;;;;20.05;9.35;;;3.40;1.00;;;;;;6187926;22;20213;-82
2023/01/28 08:45:14;;;;;;;15.85;8.50;;;3.50;1.00;;;;;;6237498;22;21035;-82
2023/01/28 08:50:52;;;;;;;17.55;9.20;;;3.50;1.00;;;;;;6191156;22;20215;-84
2023/01/28 08:53:32;;;;;;;19.55;7.38;;;3.60;1.00;;;;;;6253965;22;20958;-82
2023/01/28 08:56:02;;;;;;;13.15;6.35;;;3.60;1.00;;;;;;6255222;22;20238;-82
2023/01/28 09:02:11;;;;;;;12.70;6.20;;;3.60;1.00;;;;;;6187244;22;20211;-83
2023/01/28 09:04:44;;;;;;;11.32;5.65;;;3.70;1.00;;;;;;6190949;22;20310;-83
2023/01/28 09:07:24;;;;;;;13.52;6.18;;;3.70;1.00;;;;;;6247075;22;20227;-83
2023/01/28 09:10:03;;;;;;;13.40;5.85;;;3.70;1.00;;;;;;6219152;22;20769;-81
2023/01/28 09:12:30;;;;;;;17.48;5.90;;;3.80;1.00;;;;;;6227369;22;20271;-81
2023/01/28 09:21:53;;;;;;;10.40;4.43;;;3.80;1.00;;;;;;6123630;23;20219;-83
2023/01/28 09:24:23;;;;;;;13.93;5.35;;;3.80;1.00;;;;;;6213412;22;20220;-85
2023/01/28 09:33:04;;;;;;;10.30;4.15;;;3.90;1.00;;;;;;6036868;23;20261;-82
2023/01/28 09:35:35;;;;;;;7.40;2.97;;;4.00;1.00;;;;;;6106133;23;20211;-83
2023/01/28 09:38:02;;;;;;;9.02;3.70;;;4.10;1.00;;;;;;6136543;23;20234;-83
2023/01/28 09:40:45;;;;;;;11.63;3.53;;;4.20;1.00;;;;;;6122619;23;20211;-83
2023/01/28 09:43:56;;;;;;;8.43;3.60;;;4.20;1.00;;;;;;6166503;22;20261;-83
2023/01/28 09:46:35;;;;;;;12.38;3.50;;;4.30;1.00;;;;;;6267330;22;20207;-81
2023/01/28 09:49:25;;;;;;;10.68;3.63;;;4.20;1.00;;;;;;6253003;22;20943;-82
2023/01/28 09:51:56;;;;;;;9.73;3.72;;;4.20;1.00;;;;;;6251462;22;20226;-83
2023/01/28 09:54:41;;;;;;;11.48;3.38;;;4.20;1.00;;;;;;6232603;22;20203;-83
2023/01/28 09:57:23;;;;;;;11.73;3.20;;;4.20;1.00;;;;;;6247169;22;20205;-83
2023/01/28 10:03:01;;;;;;;8.50;2.67;;;4.10;1.00;;;;;;6188010;22;20219;-83
2023/01/28 10:05:40;;;;;;;16.75;4.30;;;4.30;1.00;;;;;;6220885;22;20200;-82
2023/01/28 10:08:35;;;;;;;10.68;3.15;;;4.30;1.00;;;;;;6251198;22;20210;-82
2023/01/28 10:11:35;;;;;;;;;;;;;;;;;;;;;
2023/01/28 10:14:22;;;;;;;10.15;3.17;;;4.30;1.00;;;;;;6249091;22;50324;-83
2023/01/28 10:17:02;;;;;;;8.98;2.55;;;4.40;1.00;;;;;;6240646;22;20290;-83
2023/01/28 10:19:43;;;;;;;7.30;2.20;;;4.40;1.00;;;;;;6228607;22;20247;-83
2023/01/28 10:22:24;;;;;;;8.65;2.70;;;4.40;1.00;;;;;;6232904;22;20259;-81
2023/01/28 10:27:51;;;;;;;11.48;2.50;;;4.40;1.00;;;;;;6185632;22;20256;-83
2023/01/28 10:30:35;;;;;;;6.55;1.30;;;4.30;1.00;;;;;;6206071;22;20216;-83
2023/01/28 10:33:10;;;;;;;22.77;11.90;;;4.30;1.00;;;;;;6215040;22;20213;-84
2023/01/28 10:35:51;;;;;;;11.85;3.90;;;4.20;1.00;;;;;;6232784;22;20250;-84
2023/01/28 10:38:42;;;;;;;9.77;2.55;;;4.20;1.00;;;;;;6233043;22;20209;-84
2023/01/28 10:41:25;;;;;;;8.95;2.70;;;4.20;1.00;;;;;;6231128;22;20239;-84
2023/01/28 10:43:54;;;;;;;7.60;2.90;;;4.20;1.00;;;;;;6249244;22;20218;-83
2023/01/28 10:46:32;;;;;;;6.95;2.25;;;4.20;1.00;;;;;;6231785;22;20208;-83
2023/01/28 10:49:15;;;;;;;7.50;1.85;;;4.30;1.00;;;;;;6236899;22;20307;-83
2023/01/28 10:51:43;;;;;;;6.15;2.33;;;4.40;1.00;;;;;;6247815;22;20204;-84
2023/01/28 10:54:33;;;;;;;10.50;2.47;;;4.50;1.00;;;;;;6266691;22;20215;-81
2023/01/28 10:57:05;;;;;;;8.75;4.25;;;4.50;1.00;;;;;;6259253;22;20275;-82
2023/01/28 10:59:43;;;;;;;8.52;2.03;;;4.50;1.00;;;;;;6259274;22;20220;-83
2023/01/28 11:02:30;;;;;;;7.38;1.85;;;4.50;1.00;;;;;;6232115;22;20196;-82
2023/01/28 11:05:16;;;;;;;8.43;1.83;;;4.40;1.00;;;;;;6258265;22;20653;-83
2023/01/28 11:07:48;;;;;;;8.20;1.90;;;4.50;1.00;;;;;;6231173;22;20224;-83
2023/01/28 11:10:37;;;;;;;7.22;1.65;;;4.50;1.00;;;;;;6232268;22;20208;-82
2023/01/28 11:13:06;;;;;;;8.43;2.67;;;4.60;1.00;;;;;;6252353;22;20216;-82
2023/01/28 11:15:33;;;;;;;8.52;1.90;;;4.60;1.00;;;;;;6257975;22;20213;-83
2023/01/28 11:18:05;;;;;;;7.30;1.60;;;4.60;1.00;;;;;;6260090;22;20219;-85
2023/01/28 11:20:38;;;;;;;5.70;1.30;;;4.50;1.00;;;;;;6260953;22;20218;-83
2023/01/28 11:23:05;;;;;;;9.05;1.70;;;4.40;1.00;;;;;;6260738;22;20220;-83
2023/01/28 11:25:35;;;;;;;10.80;1.83;;;4.50;1.00;;;;;;6261599;22;20283;-84
2023/01/28 11:28:05;;;;;;;11.38;2.38;;;4.50;1.00;;;;;;6258720;22;20320;-84
2023/01/28 11:30:35;;;;;;;8.13;2.15;;;4.30;1.00;;;;;;6259192;22;20224;-84
2023/01/28 11:33:16;;;;;;;6.53;1.58;;;4.40;1.00;;;;;;6259791;22;20241;-83
2023/01/28 11:35:55;;;;;;;5.85;1.63;;;4.40;1.00;;;;;;6258355;22;20896;-82
2023/01/28 11:38:24;;;;;;;6.57;1.80;;;4.40;1.00;;;;;;6241353;22;20215;-83
2023/01/28 11:40:54;;;;;;;7.75;1.45;;;4.50;1.00;;;;;;6263113;22;20205;-82
2023/01/28 11:43:23;;;;;;;11.30;2.15;;;4.50;1.00;;;;;;6262304;22;20212;-85
2023/01/28 11:45:57;;;;;;;8.48;1.50;;;4.50;1.00;;;;;;6259027;22;20292;-83
2023/01/28 11:48:35;;;;;;;6.55;1.73;;;4.50;1.00;;;;;;6257825;22;20215;-81
2023/01/28 11:51:06;;;;;;;7.10;1.60;;;4.60;1.00;;;;;;6254017;22;20279;-84
2023/01/28 11:53:54;;;;;;;10.18;1.90;;;4.40;1.00;;;;;;6272197;22;20284;-84
2023/01/28 11:56:38;;;;;;;8.25;1.90;;;4.30;1.00;;;;;;6258298;22;20921;-83
2023/01/28 11:59:23;;;;;;;10.55;2.40;;;4.30;1.00;;;;;;6258726;22;21043;-84
2023/01/28 12:01:59;;;;;;;7.18;1.70;;;4.30;1.00;;;;;;6259872;22;20232;-84
2023/01/28 12:04:46;;;;;;;17.65;3.65;;;4.30;1.00;;;;;;6244819;22;20208;-84
2023/01/28 12:07:30;;;;;;;7.13;1.70;;;4.40;1.00;;;;;;6260060;22;20204;-83
2023/01/28 12:10:02;;;;;;;32.80;6.32;;;4.40;1.00;;;;;;6256353;22;20268;-83
2023/01/28 12:13:13;;;;;;;10.10;2.22;;;4.40;1.00;;;;;;6239030;22;21105;-84
2023/01/28 12:15:58;;;;;;;20.92;4.40;;;4.30;1.00;;;;;;6155629;23;20202;-84
2023/01/28 12:18:43;;;;;;;11.05;2.50;;;4.40;1.00;;;;;;6238581;22;20217;-85
2023/01/28 12:21:26;;;;;;;12.18;2.00;;;4.50;1.00;;;;;;6259378;22;20239;-82
2023/01/28 12:24:11;;;;;;;10.00;2.08;;;4.40;1.00;;;;;;6259642;22;20205;-86
2023/01/28 12:26:51;;;;;;;10.27;3.05;;;4.50;1.00;;;;;;6249735;22;20252;-85
2023/01/28 12:29:32;;;;;;;7.25;2.45;;;4.40;1.00;;;;;;6261492;22;20306;-84
2023/01/28 12:32:30;;;;;;;10.43;3.20;;;4.30;1.00;;;;;;6262751;22;20678;-86
2023/01/28 12:35:24;;;;;;;8.43;3.20;;;4.20;1.00;;;;;;6169705;22;20684;-84
2023/01/28 12:38:05;;;;;;;9.20;3.15;;;4.20;1.00;;;;;;6261104;22;20285;-86
2023/01/28 12:40:56;;;;;;;8.30;3.85;;;4.20;1.00;;;;;;6247075;22;20212;-84
2023/01/28 12:43:39;;;;;;;7.20;2.75;;;4.10;1.00;;;;;;6162967;22;20209;-84
2023/01/28 12:46:18;;;;;;;10.80;3.92;;;4.10;1.00;;;;;;6213190;22;20285;-85
2023/01/28 12:48:57;;;;;;;7.07;2.70;;;4.00;1.00;;;;;;6208785;22;20690;-85
2023/01/28 12:51:37;;;;;;;9.32;2.40;;;4.00;1.00;;;;;;6189707;22;20207;-84
2023/01/28 12:54:12;;;;;;;6.90;2.60;;;3.80;1.00;;;;;;6202878;22;20215;-85
2023/01/28 12:56:44;;;;;;;10.45;2.25;;;3.70;1.00;;;;;;6267790;22;20232;-84
2023/01/28 12:59:23;;;;;;;8.57;3.10;;;3.70;1.00;;;;;;6208493;22;20209;-82
2023/01/28 13:02:01;;;;;;;9.10;2.45;;;3.60;1.00;;;;;;6221706;22;20248;-82
2023/01/28 13:04:37;;;;;;;10.10;4.10;;;3.70;1.00;;;;;;6226213;22;20212;-83
2023/01/28 13:07:10;;;;;;;11.98;2.70;;;3.70;1.00;;;;;;6248234;22;20201;-82
2023/01/28 13:09:49;;;;;;;64.00;55.83;;;3.70;1.00;;;;;;6241977;22;20209;-85
2023/01/28 13:12:23;;;;;;;12.32;3.80;;;3.70;1.00;;;;;;6254480;22;20221;-84
2023/01/28 13:14:53;;;;;;;8.80;3.70;;;3.80;1.00;;;;;;6258761;22;20208;-83
2023/01/28 13:17:34;;;;;;;8.10;2.45;;;3.80;1.00;;;;;;6197563;23;20920;-84
2023/01/28 13:20:02;;;;;;;5.97;1.90;;;3.80;1.00;;;;;;6252140;22;20284;-82
2023/01/28 13:22:44;;;;;;;7.20;2.80;;;3.90;1.00;;;;;;6243514;22;20223;-86
2023/01/28 13:25:23;;;;;;;7.63;2.40;;;3.90;1.00;;;;;;6260834;22;20209;-82
2023/01/28 13:28:06;;;;;;;6.60;2.00;;;3.80;1.00;;;;;;6238079;22;20200;-81
2023/01/28 13:30:49;;;;;;;7.35;2.50;;;3.80;1.00;;;;;;6258248;22;20265;-85
2023/01/28 13:33:38;;;;;;;7.75;2.60;;;3.80;1.00;;;;;;6238597;22;20206;-84
2023/01/28 13:39:22;;;;;;;7.15;2.28;;;3.70;1.00;;;;;;6201384;22;20248;-87
2023/01/28 13:41:51;;;;;;;9.25;2.80;;;3.70;1.00;;;;;;6239079;22;20211;-87
2023/01/28 13:44:22;;;;;;;7.38;1.90;;;3.60;1.00;;;;;;6242731;22;20215;-84
2023/01/28 13:47:01;;;;;;;7.65;1.80;;;3.50;1.00;;;;;;6250847;22;20243;-84
2023/01/28 13:49:41;;;;;;;6.65;2.00;;;3.50;1.00;;;;;;6230798;22;20235;-84
2023/01/28 13:52:16;;;;;;;6.75;2.00;;;3.50;1.00;;;;;;6236086;22;20258;-84
2023/01/28 13:54:47;;;;;;;9.95;3.08;;;3.50;1.00;;;;;;6266978;22;20212;-84
2023/01/28 13:57:46;;;;;;;9.85;2.78;;;3.50;1.00;;;;;;6256579;22;20244;-86
2023/01/28 14:00:24;;;;;;;7.57;2.38;;;3.60;1.00;;;;;;6257045;22;20224;-87
2023/01/28 14:03:33;;;;;;;7.22;2.45;;;3.70;1.00;;;;;;6243792;22;20208;-84
2023/01/28 14:06:26;;;;;;;12.15;2.55;;;3.60;1.00;;;;;;6257046;22;20254;-85
2023/01/28 14:09:18;;;;;;;10.93;2.30;;;3.60;1.00;;;;;;6259048;22;20213;-87
2023/01/28 14:12:22;;;;;;;8.02;2.55;;;3.70;1.00;;;;;;6194506;22;20213;-82
2023/01/28 14:15:18;;;;;;;11.20;3.22;;;3.80;1.00;;;;;;6240243;22;20341;-84
2023/01/28 14:17:49;;;;;;;8.30;2.55;;;3.80;1.00;;;;;;6233671;22;20236;-84
2023/01/28 14:20:36;;;;;;;8.70;2.28;;;3.80;1.00;;;;;;6258767;22;20216;-83
2023/01/28 14:23:30;;;;;;;10.80;2.50;;;3.80;1.00;;;;;;6239828;22;20223;-86
2023/01/28 14:26:27;;;;;;;13.80;5.68;;;3.80;1.00;;;;;;6262892;22;20240;-84
2023/01/28 14:29:25;;;;;;;8.50;3.15;;;3.90;1.00;;;;;;6219379;22;20216;-82
2023/01/28 14:31:58;;;;;;;6.40;2.08;;;3.90;1.00;;;;;;6260495;22;20235;-81
2023/01/28 14:34:33;;;;;;;10.90;3.55;;;3.90;1.00;;;;;;6243250;22;20219;-85
2023/01/28 14:37:08;;;;;;;7.43;2.28;;;3.90;1.00;;;;;;6260012;22;20210;-82
2023/01/28 14:39:58;;;;;;;8.43;2.35;;;3.80;1.00;;;;;;6238194;22;20215;-82
2023/01/28 14:42:47;;;;;;;11.40;3.22;;;3.90;1.00;;;;;;6257957;22;20299;-83
2023/01/28 14:45:36;;;;;;;9.13;2.50;;;3.80;1.00;;;;;;6251177;22;20908;-83
2023/01/28 14:48:37;;;;;;;6.93;2.60;;;3.80;1.00;;;;;;6260229;22;20234;-86
2023/01/28 14:51:46;;;;;;;7.32;2.35;;;3.70;1.00;;;;;;6258907;22;21002;-83
2023/01/28 14:54:36;;;;;;;7.32;1.95;;;3.60;1.00;;;;;;6184016;23;20810;-85
2023/01/28 14:57:29;;;;;;;8.45;2.70;;;3.60;1.00;;;;;;6195518;23;20222;-82
2023/01/28 15:00:00;;;;;;;8.45;2.35;;;3.60;1.00;;;;;;6189196;23;20289;-83
2023/01/28 15:02:29;;;;;;;7.38;2.10;;;3.60;1.00;;;;;;6183303;22;20230;-84
2023/01/28 15:05:08;;;;;;;10.57;2.63;;;3.70;1.00;;;;;;6233551;22;20205;-84
2023/01/28 15:07:47;;;;;;;7.90;2.30;;;3.70;1.00;;;;;;6260479;22;20226;-83
2023/01/28 15:10:25;;;;;;;8.88;2.85;;;3.60;1.00;;;;;;6257872;22;20239;-83
2023/01/28 15:13:08;;;;;;;7.90;2.20;;;3.60;1.00;;;;;;6261944;22;20224;-83
2023/01/28 15:15:48;;;;;;;7.57;2.25;;;3.50;1.00;;;;;;6262707;22;20216;-84
2023/01/28 15:21:16;;;;;;;7.22;2.50;;;3.40;1.00;;;;;;6254637;22;20677;-84
2023/01/28 15:23:54;;;;;;;8.30;2.10;;;3.40;1.00;;;;;;6250953;22;20240;-83
2023/01/28 15:26:29;;;;;;;7.07;2.20;;;3.40;1.00;;;;;;6259843;22;20272;-85
2023/01/28 15:29:05;;;;;;;7.80;2.35;;;3.40;1.00;;;;;;6262972;22;20204;-83
2023/01/28 15:31:47;;;;;;;6.35;1.90;;;3.40;1.00;;;;;;6261183;22;20937;-87
2023/01/28 15:34:29;;;;;;;7.95;2.90;;;3.30;1.00;;;;;;6260756;22;20219;-83
2023/01/28 15:39:48;;;;;;;6.95;2.42;;;3.20;1.00;;;;;;6208591;22;20204;-84
2023/01/28 15:42:30;;;;;;;10.30;3.47;;;3.10;1.00;;;;;;6231013;22;20209;-86
2023/01/28 15:47:49;;;;;;;7.85;2.65;;;3.20;1.00;;;;;;6249246;22;20303;-84
2023/01/28 15:50:25;;;;;;;8.15;2.30;;;3.10;1.00;;;;;;6261770;22;20205;-82